Time;durP1;ratioP1;P1;durP2;ratioP2;P2;SDS_P1;SDS_P2;PMS_P1;PMS_P2;Temp;Humidity;BMP_temperature;BMP_pressure;BME280_temperature;BME280_humidity;BME280_pressure;Samples;Min_cycle;Max_cycle;Signal;HPM_P1;HPM_P2
2022/03/27 00:01:45;;;;;;;;;;;19.90;50.80;;;;;;5009425;28;19928;-67
2022/03/27 00:04:11;;;;;;;;;;;19.90;50.70;;;;;;5022096;28;19994;-67
2022/03/27 00:06:36;;;;;;;;;;;20.00;50.80;;;;;;5004942;28;20424;-68
2022/03/27 00:09:02;;;;;;;;;;;19.90;50.70;;;;;;5001293;28;19914;-67
2022/03/27 00:11:28;;;;;;;;;;;19.90;50.70;;;;;;5016350;28;19933;-69
2022/03/27 00:13:54;;;;;;;;;;;19.90;50.80;;;;;;5016056;28;19913;-68
2022/03/27 00:16:20;;;;;;;;;;;20.00;50.90;;;;;;5010297;28;19925;-68
2022/03/27 00:18:45;;;;;;;;;;;19.90;50.80;;;;;;5002391;28;20047;-68
2022/03/27 00:21:11;;;;;;;;;;;19.90;50.90;;;;;;5007727;28;19913;-67
2022/03/27 00:23:36;;;;;;;;;;;19.90;50.90;;;;;;4989406;28;20680;-67
2022/03/27 00:26:02;;;;;;;;;;;19.90;50.90;;;;;;5000352;28;19921;-69
2022/03/27 00:28:32;;;;;;;;;;;19.90;50.90;;;;;;4989554;28;19917;-67
2022/03/27 00:31:00;;;;;;;;;;;19.90;50.90;;;;;;5000605;28;19914;-68
2022/03/27 00:33:26;;;;;;;;;;;19.90;50.90;;;;;;4996478;28;19917;-67
2022/03/27 00:35:52;;;;;;;;;;;20.00;51.00;;;;;;5007947;28;19913;-68
2022/03/27 00:38:18;;;;;;;;;;;20.00;51.00;;;;;;5021239;28;19928;-66
2022/03/27 00:40:43;;;;;;;;;;;19.90;50.90;;;;;;5017678;28;19913;-66
2022/03/27 00:43:09;;;;;;;;;;;20.00;50.90;;;;;;5001713;28;19918;-62
2022/03/27 00:45:34;;;;;;;;;;;19.90;51.20;;;;;;5004650;28;20726;-65
2022/03/27 00:48:00;;;;;;;;;;;19.90;51.00;;;;;;5003746;28;19924;-66
2022/03/27 00:50:25;;;;;;;;;;;19.90;50.90;;;;;;5021541;28;19917;-69
2022/03/27 00:52:51;;;;;;;;;;;19.90;51.00;;;;;;5001303;28;19921;-67
2022/03/27 00:55:16;;;;;;;;;;;19.90;51.00;;;;;;5002235;28;20405;-66
2022/03/27 00:57:41;;;;;;;;;;;19.90;50.90;;;;;;5000830;28;19975;-66
2022/03/27 01:00:08;;;;;;;;;;;19.90;50.90;;;;;;5021330;28;19917;-63
2022/03/27 01:02:34;;;;;;;;;;;20.00;50.90;;;;;;4983350;28;19983;-66
2022/03/27 01:05:00;;;;;;;;;;;19.90;50.90;;;;;;5002838;28;19985;-67
2022/03/27 01:07:25;;;;;;;;;;;19.90;50.90;;;;;;5015448;28;20384;-67
2022/03/27 01:09:51;;;;;;;;;;;19.90;50.90;;;;;;5004289;28;19917;-62
2022/03/27 01:12:22;;;;;;;;;;;19.90;50.90;;;;;;5010266;28;19917;-67
2022/03/27 01:14:48;;;;;;;;;;;19.90;51.00;;;;;;4990029;28;19928;-66
2022/03/27 01:17:15;;;;;;;;;;;19.90;50.90;;;;;;5013715;28;20610;-67
2022/03/27 01:19:43;;;;;;;;;;;19.90;50.90;;;;;;5020668;28;19913;-66
2022/03/27 01:22:09;;;;;;;;;;;19.90;50.90;;;;;;5013252;28;19960;-68
2022/03/27 01:24:34;;;;;;;;;;;19.90;50.90;;;;;;5001400;28;19940;-66
2022/03/27 01:26:59;;;;;;;;;;;19.90;51.10;;;;;;5010462;28;19939;-68
2022/03/27 01:29:25;;;;;;;;;;;19.90;50.90;;;;;;5009794;28;19948;-66
2022/03/27 01:31:51;;;;;;;;;;;19.90;51.00;;;;;;5015804;28;19943;-66
2022/03/27 01:34:17;;;;;;;;;;;19.90;51.10;;;;;;4998719;28;19917;-68
2022/03/27 01:36:42;;;;;;;;;;;19.90;50.90;;;;;;5006001;28;19925;-67
2022/03/27 01:39:12;;;;;;;;;;;19.90;51.00;;;;;;5017596;28;19913;-67
2022/03/27 01:41:37;;;;;;;;;;;19.90;51.00;;;;;;5018189;28;19913;-67
2022/03/27 01:44:07;;;;;;;;;;;19.90;51.00;;;;;;4998401;28;19913;-66
2022/03/27 01:46:32;;;;;;;;;;;19.90;51.00;;;;;;5002805;28;19917;-67
2022/03/27 01:49:02;;;;;;;;;;;19.90;51.10;;;;;;5018322;28;19910;-66
2022/03/27 01:51:28;;;;;;;;;;;19.90;51.00;;;;;;5003734;28;19913;-67
2022/03/27 01:53:53;;;;;;;;;;;19.90;51.00;;;;;;4981181;28;20551;-69
2022/03/27 01:56:19;;;;;;;;;;;19.90;51.70;;;;;;4985181;28;19933;-68
2022/03/27 01:58:44;;;;;;;;;;;19.90;51.00;;;;;;5016134;28;19960;-66
2022/03/27 02:01:10;;;;;;;;;;;19.90;51.00;;;;;;5021497;28;19924;-67
2022/03/27 02:03:35;;;;;;;;;;;19.90;51.00;;;;;;5001532;28;20694;-63
2022/03/27 02:06:02;;;;;;;;;;;19.90;51.00;;;;;;5001682;28;19913;-63
2022/03/27 02:08:27;;;;;;;;;;;19.90;51.00;;;;;;5012648;28;19917;-66
2022/03/27 02:10:53;;;;;;;;;;;19.90;50.90;;;;;;5020697;28;20235;-67
2022/03/27 02:13:19;;;;;;;;;;;19.90;50.90;;;;;;5001234;28;19922;-66
2022/03/27 02:15:45;;;;;;;;;;;19.90;50.90;;;;;;5001264;28;19924;-63
2022/03/27 02:18:11;;;;;;;;;;;19.90;50.90;;;;;;5008965;28;20020;-67
2022/03/27 02:20:36;;;;;;;;;;;19.90;50.90;;;;;;5020679;28;19924;-66
2022/03/27 02:23:02;;;;;;;;;;;19.90;50.90;;;;;;5000337;28;19917;-68
2022/03/27 02:25:28;;;;;;;;;;;19.90;50.90;;;;;;5004100;28;20493;-65
2022/03/27 02:27:53;;;;;;;;;;;19.90;51.00;;;;;;5009586;28;20392;-62
2022/03/27 02:30:20;;;;;;;;;;;19.90;50.90;;;;;;4999071;28;19921;-60
2022/03/27 02:32:46;;;;;;;;;;;19.90;50.90;;;;;;4999554;28;19917;-66
2022/03/27 02:35:11;;;;;;;;;;;19.90;51.00;;;;;;5020870;28;20497;-69
2022/03/27 02:37:37;;;;;;;;;;;19.90;50.90;;;;;;5013895;28;19925;-63
2022/03/27 02:40:03;;;;;;;;;;;19.90;51.00;;;;;;5001065;28;20381;-66
2022/03/27 02:42:28;;;;;;;;;;;19.90;50.90;;;;;;5003759;28;19961;-64
2022/03/27 02:44:53;;;;;;;;;;;19.90;51.00;;;;;;5017092;28;19917;-67
2022/03/27 02:47:19;;;;;;;;;;;19.90;51.00;;;;;;5003445;28;19920;-68
2022/03/27 02:49:44;;;;;;;;;;;19.90;51.10;;;;;;5016264;28;20411;-68
2022/03/27 02:52:10;;;;;;;;;;;19.90;51.00;;;;;;5021532;28;19913;-64
2022/03/27 02:54:35;;;;;;;;;;;19.90;51.00;;;;;;4998736;28;19917;-67
2022/03/27 02:57:01;;;;;;;;;;;19.90;51.10;;;;;;5001186;28;19917;-66
2022/03/27 02:59:27;;;;;;;;;;;19.90;51.00;;;;;;5010684;28;19925;-63
2022/03/27 03:01:52;;;;;;;;;;;19.90;51.00;;;;;;5021020;28;19920;-64
2022/03/27 03:04:18;;;;;;;;;;;19.80;51.00;;;;;;4987959;28;19917;-63
2022/03/27 03:06:43;;;;;;;;;;;19.80;51.00;;;;;;5003985;28;20693;-67
2022/03/27 03:09:09;;;;;;;;;;;19.90;51.10;;;;;;5011196;28;19914;-69
2022/03/27 03:11:35;;;;;;;;;;;19.90;51.00;;;;;;5023858;28;19936;-64
2022/03/27 03:14:01;;;;;;;;;;;19.80;51.00;;;;;;5010220;28;20448;-69
2022/03/27 03:16:26;;;;;;;;;;;19.80;51.00;;;;;;5004611;28;20008;-68
2022/03/27 03:18:52;;;;;;;;;;;19.80;51.00;;;;;;4990809;28;19921;-62
2022/03/27 03:21:17;;;;;;;;;;;19.80;51.00;;;;;;5024101;28;20500;-63
2022/03/27 03:23:42;;;;;;;;;;;19.80;50.90;;;;;;5013186;28;20355;-67
2022/03/27 03:26:09;;;;;;;;;;;19.80;51.00;;;;;;5004160;28;19976;-57
2022/03/27 03:28:34;;;;;;;;;;;19.80;51.00;;;;;;5000893;28;19917;-68
2022/03/27 03:31:00;;;;;;;;;;;19.80;50.90;;;;;;5004415;28;19924;-62
2022/03/27 03:33:26;;;;;;;;;;;19.90;50.90;;;;;;4998977;28;19925;-67
2022/03/27 03:35:51;;;;;;;;;;;19.80;50.90;;;;;;5003724;28;19925;-64
2022/03/27 03:38:17;;;;;;;;;;;19.80;50.90;;;;;;4983498;28;20020;-68
2022/03/27 03:40:42;;;;;;;;;;;19.80;50.90;;;;;;5003883;28;19929;-65
2022/03/27 03:43:09;;;;;;;;;;;19.80;51.00;;;;;;5000765;28;19918;-66
2022/03/27 03:45:35;;;;;;;;;;;19.80;50.90;;;;;;5022887;28;19939;-62
2022/03/27 03:48:00;;;;;;;;;;;19.80;51.00;;;;;;5020935;28;19951;-67
2022/03/27 03:50:26;;;;;;;;;;;19.70;50.90;;;;;;5006241;28;19917;-63
2022/03/27 03:52:52;;;;;;;;;;;19.80;50.90;;;;;;4997876;28;20012;-67
2022/03/27 03:55:17;;;;;;;;;;;19.70;50.90;;;;;;5019049;28;20437;-63
2022/03/27 03:57:42;;;;;;;;;;;19.80;50.90;;;;;;5002099;28;19921;-66
2022/03/27 04:00:08;;;;;;;;;;;19.70;50.90;;;;;;5009438;28;20451;-66
2022/03/27 04:02:33;;;;;;;;;;;19.70;50.80;;;;;;4999720;28;20008;-65
2022/03/27 04:05:01;;;;;;;;;;;19.70;50.90;;;;;;5015656;28;19917;-67
2022/03/27 04:07:26;;;;;;;;;;;19.70;50.80;;;;;;5024673;28;19917;-64
2022/03/27 04:09:51;;;;;;;;;;;19.70;50.90;;;;;;4979569;28;19922;-64
2022/03/27 04:12:17;;;;;;;;;;;19.70;50.80;;;;;;5003440;28;19967;-64
2022/03/27 04:14:43;;;;;;;;;;;19.70;50.80;;;;;;4997645;28;19956;-64
2022/03/27 04:17:09;;;;;;;;;;;19.70;50.90;;;;;;4986271;28;19917;-60
2022/03/27 04:19:34;;;;;;;;;;;19.70;50.90;;;;;;4986599;28;19968;-60
2022/03/27 04:22:00;;;;;;;;;;;19.70;50.90;;;;;;5003540;28;19917;-63
2022/03/27 04:24:25;;;;;;;;;;;19.70;50.90;;;;;;5003269;28;19917;-61
2022/03/27 04:26:51;;;;;;;;;;;19.70;50.90;;;;;;5022424;28;20373;-68
2022/03/27 04:29:17;;;;;;;;;;;19.70;50.80;;;;;;5016815;28;19919;-65
2022/03/27 04:31:42;;;;;;;;;;;19.70;50.90;;;;;;5003894;28;19917;-66
2022/03/27 04:34:08;;;;;;;;;;;19.70;50.90;;;;;;4999824;28;20403;-66
2022/03/27 04:36:34;;;;;;;;;;;19.70;50.90;;;;;;5022345;28;20661;-67
2022/03/27 04:38:59;;;;;;;;;;;19.70;50.80;;;;;;5019359;28;19949;-67
2022/03/27 04:41:24;;;;;;;;;;;19.60;50.80;;;;;;5005673;28;19968;-68
2022/03/27 04:43:50;;;;;;;;;;;19.70;50.80;;;;;;4989951;28;19932;-66
2022/03/27 04:46:15;;;;;;;;;;;19.70;50.80;;;;;;5018433;28;19921;-67
2022/03/27 04:48:41;;;;;;;;;;;19.70;50.70;;;;;;5017247;28;19917;-62
2022/03/27 04:51:07;;;;;;;;;;;19.60;50.70;;;;;;5007920;28;20402;-67
2022/03/27 04:53:32;;;;;;;;;;;19.60;50.80;;;;;;4999771;28;20517;-66
2022/03/27 04:55:58;;;;;;;;;;;19.60;50.80;;;;;;5015513;28;19949;-66
2022/03/27 04:58:24;;;;;;;;;;;19.60;50.80;;;;;;5016104;28;19921;-69
2022/03/27 05:00:49;;;;;;;;;;;19.60;50.80;;;;;;5011433;28;19917;-67
2022/03/27 05:03:15;;;;;;;;;;;19.60;50.80;;;;;;4981479;28;19918;-66
2022/03/27 05:05:41;;;;;;;;;;;19.60;50.80;;;;;;4993471;28;19917;-66
2022/03/27 05:08:06;;;;;;;;;;;19.60;50.80;;;;;;5017888;28;19917;-65
2022/03/27 05:10:32;;;;;;;;;;;19.60;50.80;;;;;;4996607;28;20292;-66
2022/03/27 05:12:57;;;;;;;;;;;19.60;50.80;;;;;;4988441;28;19995;-66
2022/03/27 05:15:23;;;;;;;;;;;19.60;50.90;;;;;;5006556;28;20343;-66
2022/03/27 05:17:49;;;;;;;;;;;19.60;50.80;;;;;;5018308;28;19928;-66
2022/03/27 05:20:14;;;;;;;;;;;19.60;50.80;;;;;;5000895;28;19921;-66
2022/03/27 05:22:41;;;;;;;;;;;19.60;50.90;;;;;;4998015;28;20510;-67
2022/03/27 05:25:06;;;;;;;;;;;19.60;50.80;;;;;;5002977;28;19988;-67
2022/03/27 05:27:32;;;;;;;;;;;19.60;50.80;;;;;;5022067;28;19921;-66
2022/03/27 05:29:57;;;;;;;;;;;19.60;50.80;;;;;;5016262;28;19917;-62
2022/03/27 05:32:23;;;;;;;;;;;19.60;50.80;;;;;;5002034;28;19948;-67
2022/03/27 05:34:48;;;;;;;;;;;19.60;50.70;;;;;;4994086;28;19979;-67
2022/03/27 05:37:14;;;;;;;;;;;19.60;50.80;;;;;;5019194;28;19925;-63
2022/03/27 05:39:39;;;;;;;;;;;19.60;50.80;;;;;;5016258;28;19921;-67
2022/03/27 05:42:05;;;;;;;;;;;19.60;50.80;;;;;;5006817;28;19953;-62
2022/03/27 05:44:30;;;;;;;;;;;19.60;50.80;;;;;;4997300;28;20466;-69
2022/03/27 05:46:56;;;;;;;;;;;19.60;50.80;;;;;;5015353;28;19913;-67
2022/03/27 05:49:22;;;;;;;;;;;19.60;50.90;;;;;;5016939;28;19913;-67
2022/03/27 05:51:47;;;;;;;;;;;19.60;50.80;;;;;;5010079;28;19952;-68
2022/03/27 05:54:13;;;;;;;;;;;19.60;50.80;;;;;;4998480;28;19924;-68
2022/03/27 05:56:39;;;;;;;;;;;19.60;50.80;;;;;;5011650;28;19920;-67
2022/03/27 05:59:05;;;;;;;;;;;19.60;50.90;;;;;;5016480;28;19986;-67
2022/03/27 06:01:31;;;;;;;;;;;19.60;50.90;;;;;;5013723;28;19914;-68
2022/03/27 06:03:56;;;;;;;;;;;19.60;50.90;;;;;;5002188;28;19910;-67
2022/03/27 06:06:22;;;;;;;;;;;19.60;50.90;;;;;;5009436;28;19921;-67
2022/03/27 06:08:47;;;;;;;;;;;19.60;50.90;;;;;;5021059;28;20334;-67
2022/03/27 06:11:13;;;;;;;;;;;19.60;50.90;;;;;;5017595;28;20342;-68
2022/03/27 06:13:38;;;;;;;;;;;19.50;50.90;;;;;;5001775;28;19914;-68
2022/03/27 06:16:04;;;;;;;;;;;19.60;50.90;;;;;;4986737;28;19909;-65
2022/03/27 06:18:29;;;;;;;;;;;19.60;50.90;;;;;;5020867;28;19917;-68
2022/03/27 06:20:55;;;;;;;;;;;19.60;51.00;;;;;;5020989;28;19975;-67
2022/03/27 06:23:20;;;;;;;;;;;19.50;50.80;;;;;;5001187;28;19913;-68
2022/03/27 06:25:45;;;;;;;;;;;19.60;51.00;;;;;;4983440;28;19971;-68
2022/03/27 06:28:11;;;;;;;;;;;19.50;50.90;;;;;;5001797;28;19913;-66
2022/03/27 06:30:36;;;;;;;;;;;19.60;51.00;;;;;;5002889;28;19909;-67
2022/03/27 06:33:02;;;;;;;;;;;19.60;50.90;;;;;;5005877;28;20365;-66
2022/03/27 06:35:27;;;;;;;;;;;19.60;50.90;;;;;;5002035;28;19913;-66
2022/03/27 06:37:53;;;;;;;;;;;19.60;50.90;;;;;;5017983;28;19929;-68
2022/03/27 06:40:20;;;;;;;;;;;19.60;50.90;;;;;;5024496;28;19966;-66
2022/03/27 06:42:45;;;;;;;;;;;19.60;50.80;;;;;;5011954;28;19924;-68
2022/03/27 06:45:11;;;;;;;;;;;19.60;50.90;;;;;;5005017;28;19913;-68
2022/03/27 06:47:37;;;;;;;;;;;19.60;50.90;;;;;;5015695;28;20365;-68
2022/03/27 06:50:03;;;;;;;;;;;19.60;50.80;;;;;;5024561;28;19917;-68
2022/03/27 06:52:28;;;;;;;;;;;19.60;50.90;;;;;;4997551;28;20356;-67
2022/03/27 06:54:54;;;;;;;;;;;19.60;50.90;;;;;;4987521;28;19963;-68
2022/03/27 06:57:20;;;;;;;;;;;19.60;50.90;;;;;;5011974;28;19917;-70
2022/03/27 07:05:14;;;;;;;;;;;19.60;51.80;;;;;;5004063;28;19940;-67
2022/03/27 07:07:40;;;;;;;;;;;19.70;52.00;;;;;;5013405;28;19923;-70
2022/03/27 07:10:06;;;;;;;;;;;19.70;51.80;;;;;;5024047;28;20469;-67
2022/03/27 07:12:31;;;;;;;;;;;19.70;51.90;;;;;;5018257;28;19963;-68
2022/03/27 07:14:57;;;;;;;;;;;19.70;52.00;;;;;;5005001;28;19925;-69
2022/03/27 07:17:22;;;;;;;;;;;19.70;52.20;;;;;;5008449;28;20396;-69
2022/03/27 07:19:48;;;;;;;;;;;19.70;52.70;;;;;;5023187;28;19921;-69
2022/03/27 07:22:14;;;;;;;;;;;19.70;53.20;;;;;;5021092;28;19963;-68
2022/03/27 07:24:40;;;;;;;;;;;19.70;53.40;;;;;;4986901;28;19918;-64
2022/03/27 07:27:06;;;;;;;;;;;19.70;53.50;;;;;;5005761;28;20686;-66
2022/03/27 07:29:32;;;;;;;;;;;19.80;53.70;;;;;;5024288;28;19956;-66
2022/03/27 07:31:58;;;;;;;;;;;19.80;53.40;;;;;;5025795;28;20569;-65
2022/03/27 07:34:23;;;;;;;;;;;19.70;53.20;;;;;;5006174;28;19921;-67
2022/03/27 07:36:49;;;;;;;;;;;19.70;52.90;;;;;;5004578;28;19926;-67
2022/03/27 07:39:14;;;;;;;;;;;19.70;52.80;;;;;;5022077;28;19917;-67
2022/03/27 07:41:40;;;;;;;;;;;19.70;52.70;;;;;;5024142;28;20200;-66
2022/03/27 07:44:05;;;;;;;;;;;19.70;52.60;;;;;;5008673;28;19920;-66
2022/03/27 07:46:31;;;;;;;;;;;19.70;52.40;;;;;;5004590;28;19913;-65
2022/03/27 07:48:56;;;;;;;;;;;19.70;52.40;;;;;;5014913;28;19920;-62
2022/03/27 07:51:22;;;;;;;;;;;19.70;52.30;;;;;;5023744;28;20484;-66
2022/03/27 07:53:47;;;;;;;;;;;19.70;52.20;;;;;;5011838;28;19949;-65
2022/03/27 07:56:13;;;;;;;;;;;19.70;52.10;;;;;;5003568;28;19929;-66
2022/03/27 07:58:39;;;;;;;;;;;19.70;52.00;;;;;;5012717;28;20484;-66
2022/03/27 08:01:05;;;;;;;;;;;19.70;52.00;;;;;;5023045;28;19920;-65
2022/03/27 08:03:33;;;;;;;;;;;19.70;51.90;;;;;;5015130;28;19921;-68
2022/03/27 08:05:59;;;;;;;;;;;19.70;51.80;;;;;;4985275;28;20662;-69
2022/03/27 08:08:24;;;;;;;;;;;19.70;52.50;;;;;;4985203;28;19917;-69
2022/03/27 08:10:50;;;;;;;;;;;19.70;52.60;;;;;;4985756;28;20553;-67
2022/03/27 08:13:15;;;;;;;;;;;19.70;52.30;;;;;;5007840;28;20040;-69
2022/03/27 08:15:41;;;;;;;;;;;19.70;52.20;;;;;;5023255;28;19925;-68
2022/03/27 08:18:06;;;;;;;;;;;19.70;52.10;;;;;;5019716;28;19920;-67
2022/03/27 08:20:32;;;;;;;;;;;19.70;52.10;;;;;;5003009;28;20331;-67
2022/03/27 08:22:58;;;;;;;;;;;19.70;52.00;;;;;;5003947;28;19913;-68
2022/03/27 08:28:08;;;;;;;;;;;19.70;52.00;;;;;;5007930;28;19928;-69
2022/03/27 08:30:33;;;;;;;;;;;19.70;52.80;;;;;;5023064;28;19917;-69
2022/03/27 08:32:59;;;;;;;;;;;19.70;52.90;;;;;;5022681;28;19918;-68
2022/03/27 08:35:24;;;;;;;;;;;19.70;52.70;;;;;;5003531;28;19939;-68
2022/03/27 08:37:50;;;;;;;;;;;19.80;52.50;;;;;;5003064;28;19922;-69
2022/03/27 08:40:15;;;;;;;;;;;19.80;52.30;;;;;;5020394;28;19921;-70
2022/03/27 08:42:41;;;;;;;;;;;19.80;51.90;;;;;;5023231;28;20431;-68
2022/03/27 08:45:07;;;;;;;;;;;19.80;51.50;;;;;;5007481;28;19948;-69
2022/03/27 08:47:32;;;;;;;;;;;19.80;51.40;;;;;;5002904;28;19914;-69
2022/03/27 08:49:57;;;;;;;;;;;19.70;51.30;;;;;;5015700;28;19917;-69
2022/03/27 08:52:34;;;;;;;;;;;19.70;51.30;;;;;;5022746;28;19921;-68
2022/03/27 08:55:12;;;;;;;;;;;19.80;51.40;;;;;;5009577;28;19924;-67
2022/03/27 08:57:43;;;;;;;;;;;19.70;51.50;;;;;;4985605;28;19913;-68
2022/03/27 09:00:10;;;;;;;;;;;19.70;51.40;;;;;;4997620;28;19991;-69
2022/03/27 09:02:36;;;;;;;;;;;19.70;51.40;;;;;;5021826;28;20030;-68
2022/03/27 09:05:02;;;;;;;;;;;19.70;51.50;;;;;;5010718;28;20389;-69
2022/03/27 09:07:27;;;;;;;;;;;19.70;51.50;;;;;;5001506;28;19914;-69
2022/03/27 09:09:53;;;;;;;;;;;19.70;51.50;;;;;;5011534;28;20598;-68
2022/03/27 09:12:19;;;;;;;;;;;19.70;51.40;;;;;;5004603;28;20003;-68
2022/03/27 09:14:44;;;;;;;;;;;19.70;51.40;;;;;;5013199;28;19913;-69
2022/03/27 09:17:09;;;;;;;;;;;19.80;51.40;;;;;;4984243;28;19949;-69
2022/03/27 09:19:36;;;;;;;;;;;19.80;51.30;;;;;;4990858;28;19921;-68
2022/03/27 09:22:12;;;;;;;;;;;19.70;51.80;;;;;;5022163;28;19917;-69
2022/03/27 09:24:38;;;;;;;;;;;19.80;51.20;;;;;;5015808;28;19976;-68
2022/03/27 09:27:05;;;;;;;;;;;19.70;51.10;;;;;;5002275;28;20580;-69
2022/03/27 09:29:30;;;;;;;;;;;19.70;51.10;;;;;;5005972;28;19924;-69
2022/03/27 09:31:56;;;;;;;;;;;19.70;51.00;;;;;;5003795;28;19921;-67
2022/03/27 09:34:22;;;;;;;;;;;19.70;50.90;;;;;;5019236;28;19913;-68
2022/03/27 09:36:48;;;;;;;;;;;19.70;50.90;;;;;;5001324;28;19932;-67
2022/03/27 09:39:16;;;;;;;;;;;19.70;50.90;;;;;;5001825;28;20312;-67
2022/03/27 09:41:46;;;;;;;;;;;19.70;50.90;;;;;;5021831;28;19921;-68
2022/03/27 09:44:31;;;;;;;;;;;19.80;50.90;;;;;;5021375;28;19924;-67
2022/03/27 09:46:57;;;;;;;;;;;19.80;51.50;;;;;;4964619;28;19972;-67
2022/03/27 09:49:35;;;;;;;;;;;19.80;50.90;;;;;;4983107;28;19918;-67
2022/03/27 09:52:00;;;;;;;;;;;19.80;50.80;;;;;;5021757;28;20003;-66
2022/03/27 09:54:27;;;;;;;;;;;19.80;50.70;;;;;;5021398;28;20020;-68
2022/03/27 09:56:53;;;;;;;;;;;19.80;50.70;;;;;;5001820;28;19913;-67
2022/03/27 09:59:28;;;;;;;;;;;19.80;50.70;;;;;;5000523;28;19965;-67
2022/03/27 10:01:54;;;;;;;;;;;19.80;50.80;;;;;;4982398;28;20012;-68
2022/03/27 10:04:20;;;;;;;;;;;19.80;50.70;;;;;;4982556;28;19924;-69
2022/03/27 10:06:45;;;;;;;;;;;19.80;50.70;;;;;;5017756;28;20552;-67
2022/03/27 10:09:12;;;;;;;;;;;19.80;50.70;;;;;;5020537;28;19917;-67
2022/03/27 10:11:37;;;;;;;;;;;19.80;50.80;;;;;;5005303;28;19917;-67
2022/03/27 10:14:06;;;;;;;;;;;19.80;50.70;;;;;;5005411;28;19924;-67
2022/03/27 10:16:34;;;;;;;;;;;19.80;50.70;;;;;;5003699;28;19971;-67
2022/03/27 10:19:05;;;;;;;;;;;19.90;50.70;;;;;;5024565;28;20398;-67
2022/03/27 10:21:30;;;;;;;;;;;19.90;50.70;;;;;;4993827;28;20301;-67
2022/03/27 10:24:01;;;;;;;;;;;19.90;50.70;;;;;;5007324;28;19921;-67
2022/03/27 10:26:27;;;;;;;;;;;19.90;50.60;;;;;;5019559;28;19921;-67
2022/03/27 10:28:52;;;;;;;;;;;19.90;50.70;;;;;;5024892;28;19924;-67
2022/03/27 10:31:18;;;;;;;;;;;19.90;50.70;;;;;;4996746;28;19914;-68
2022/03/27 10:33:43;;;;;;;;;;;19.90;50.60;;;;;;5005292;28;19917;-67
2022/03/27 10:36:24;;;;;;;;;;;19.90;50.50;;;;;;5014235;28;19921;-66
2022/03/27 10:38:52;;;;;;;;;;;19.90;50.50;;;;;;5024320;28;19928;-67
2022/03/27 10:41:17;;;;;;;;;;;19.90;50.50;;;;;;4998482;28;19971;-67
2022/03/27 10:44:03;;;;;;;;;;;19.90;50.40;;;;;;5005802;28;19987;-65
2022/03/27 10:46:29;;;;;;;;;;;19.90;50.40;;;;;;4998986;28;20391;-67
2022/03/27 10:49:09;;;;;;;;;;;19.90;50.40;;;;;;5008290;28;19917;-67
2022/03/27 10:51:34;;;;;;;;;;;19.90;50.40;;;;;;5015489;28;20572;-66
2022/03/27 10:54:07;;;;;;;;;;;19.90;50.50;;;;;;5005781;28;20304;-68
2022/03/27 10:56:37;;;;;;;;;;;19.90;50.30;;;;;;4987133;28;19917;-67
2022/03/27 10:59:08;;;;;;;;;;;20.00;50.30;;;;;;5004206;28;19925;-67
2022/03/27 11:01:47;;;;;;;;;;;19.90;50.20;;;;;;5014195;28;20004;-67
2022/03/27 11:04:15;;;;;;;;;;;19.90;50.20;;;;;;5023959;28;20475;-67
2022/03/27 11:06:42;;;;;;;;;;;19.90;50.10;;;;;;5024590;28;19913;-67
2022/03/27 11:09:08;;;;;;;;;;;20.00;50.10;;;;;;5023687;28;19913;-67
2022/03/27 11:11:33;;;;;;;;;;;20.00;50.10;;;;;;5016309;28;19957;-68
2022/03/27 11:13:59;;;;;;;;;;;20.00;50.10;;;;;;5004474;28;20544;-67
2022/03/27 11:16:25;;;;;;;;;;;20.00;50.00;;;;;;5009974;28;19921;-68
2022/03/27 11:18:50;;;;;;;;;;;20.00;50.10;;;;;;5005436;28;19925;-67
2022/03/27 11:21:28;;;;;;;;;;;20.00;49.90;;;;;;5020368;28;19959;-67
2022/03/27 11:23:54;;;;;;;;;;;20.00;49.80;;;;;;5003686;28;20683;-67
2022/03/27 11:26:20;;;;;;;;;;;20.00;49.80;;;;;;5007048;28;19957;-67
2022/03/27 11:28:50;;;;;;;;;;;20.00;49.70;;;;;;5023322;28;19967;-67
2022/03/27 11:31:17;;;;;;;;;;;20.00;49.80;;;;;;5021708;28;19975;-67
2022/03/27 11:33:44;;;;;;;;;;;20.00;49.70;;;;;;5003991;28;19918;-66
2022/03/27 11:36:11;;;;;;;;;;;20.00;49.70;;;;;;5004667;28;19917;-65
2022/03/27 11:38:46;;;;;;;;;;;20.00;49.70;;;;;;5021571;28;19921;-68
2022/03/27 11:41:38;;;;;;;;;;;20.00;49.70;;;;;;5023045;28;19952;-70
2022/03/27 11:45:06;;;;;;;;;;;20.00;49.70;;;;;;4995516;28;20543;-69
2022/03/27 11:47:11;;;;;;;;;;;20.10;50.20;;;;;;5011260;28;20570;-68
2022/03/27 11:49:37;;;;;;;;;;;20.10;50.90;;;;;;5023789;28;19917;-69
2022/03/27 11:52:06;;;;;;;;;;;20.10;51.30;;;;;;5017480;28;20004;-67
2022/03/27 11:54:31;;;;;;;;;;;20.20;51.40;;;;;;5004116;28;19924;-69
2022/03/27 11:56:58;;;;;;;;;;;20.20;51.50;;;;;;5007134;28;20324;-66
2022/03/27 11:59:26;;;;;;;;;;;20.20;51.70;;;;;;5023142;28;19961;-67
2022/03/27 12:01:56;;;;;;;;;;;20.20;51.70;;;;;;5020952;28;19918;-69
2022/03/27 12:04:21;;;;;;;;;;;20.20;51.80;;;;;;4986368;28;19993;-66
2022/03/27 12:06:53;;;;;;;;;;;20.20;51.90;;;;;;5005241;28;19924;-66
2022/03/27 12:09:25;;;;;;;;;;;20.20;51.70;;;;;;5004184;28;19921;-67
2022/03/27 12:12:04;;;;;;;;;;;20.20;51.50;;;;;;5003520;28;19917;-67
2022/03/27 12:14:29;;;;;;;;;;;20.20;51.30;;;;;;5002129;28;20654;-67
2022/03/27 12:16:55;;;;;;;;;;;20.20;51.20;;;;;;5003445;28;19921;-66
2022/03/27 12:19:20;;;;;;;;;;;20.20;51.20;;;;;;4998914;28;19918;-67
2022/03/27 12:21:48;;;;;;;;;;;20.20;51.20;;;;;;5001965;28;19936;-68
2022/03/27 12:24:16;;;;;;;;;;;20.20;51.10;;;;;;4962016;28;19929;-67
2022/03/27 12:29:43;;;;;;;;;;;20.30;54.10;;;;;;4978193;28;19940;-69
2022/03/27 12:32:25;;;;;;;;;;;20.30;54.20;;;;;;4985939;28;19918;-68
2022/03/27 12:34:51;;;;;;;;;;;20.30;54.50;;;;;;5015524;28;20340;-65
2022/03/27 12:37:17;;;;;;;;;;;20.40;55.30;;;;;;5021219;28;19957;-66
2022/03/27 12:39:49;;;;;;;;;;;20.40;55.20;;;;;;4998831;28;19924;-66
2022/03/27 12:42:29;;;;;;;;;;;20.40;54.90;;;;;;5004491;28;19956;-65
2022/03/27 12:45:00;;;;;;;;;;;20.40;54.20;;;;;;5018920;28;20334;-66
2022/03/27 12:47:35;;;;;;;;;;;20.40;53.80;;;;;;5022092;28;19939;-63
2022/03/27 12:50:01;;;;;;;;;;;20.40;53.30;;;;;;5003192;28;19936;-66
2022/03/27 12:52:26;;;;;;;;;;;20.40;52.80;;;;;;4989248;28;20385;-66
2022/03/27 12:54:55;;;;;;;;;;;20.40;52.30;;;;;;5016811;28;19913;-66
2022/03/27 12:57:20;;;;;;;;;;;20.40;51.80;;;;;;5022616;28;19967;-66
2022/03/27 12:59:46;;;;;;;;;;;20.40;51.40;;;;;;4997281;28;19917;-67
2022/03/27 13:02:24;;;;;;;;;;;20.40;51.00;;;;;;5003581;28;19929;-69
2022/03/27 13:05:01;;;;;;;;;;;20.40;50.80;;;;;;4998484;28;20010;-65
2022/03/27 13:07:46;;;;;;;;;;;20.40;50.50;;;;;;5021865;28;19914;-67
2022/03/27 13:10:11;;;;;;;;;;;20.40;50.00;;;;;;4981655;28;19917;-67
2022/03/27 13:12:36;;;;;;;;;;;20.40;49.70;;;;;;4978808;28;19914;-67
2022/03/27 13:15:03;;;;;;;;;;;20.40;49.50;;;;;;5004327;28;19917;-68
2022/03/27 13:17:28;;;;;;;;;;;20.40;49.30;;;;;;5022420;28;20016;-67
2022/03/27 13:19:54;;;;;;;;;;;20.40;48.90;;;;;;4976581;28;19952;-67
2022/03/27 13:22:19;;;;;;;;;;;20.40;48.90;;;;;;5002302;28;19945;-67
2022/03/27 13:24:44;;;;;;;;;;;20.40;49.00;;;;;;4992864;28;19917;-67
2022/03/27 13:27:10;;;;;;;;;;;20.40;49.00;;;;;;5004070;28;19939;-66
2022/03/27 13:29:36;;;;;;;;;;;20.30;48.50;;;;;;5015767;28;19914;-64
2022/03/27 13:32:01;;;;;;;;;;;20.40;48.50;;;;;;5007236;28;20012;-68
2022/03/27 13:34:29;;;;;;;;;;;20.40;48.40;;;;;;5002490;28;20004;-68
2022/03/27 13:36:54;;;;;;;;;;;20.40;48.10;;;;;;4984049;28;20028;-67
2022/03/27 13:39:21;;;;;;;;;;;20.30;48.00;;;;;;5011330;28;20011;-70
2022/03/27 13:44:30;;;;;;;;;;;20.40;47.90;;;;;;5010616;28;19983;-68
2022/03/27 13:46:56;;;;;;;;;;;20.40;47.80;;;;;;5001741;28;20384;-70
2022/03/27 13:49:21;;;;;;;;;;;20.40;47.70;;;;;;4993310;28;20395;-71
2022/03/27 13:51:47;;;;;;;;;;;20.40;47.60;;;;;;5021139;28;19917;-70
2022/03/27 13:54:12;;;;;;;;;;;20.40;47.60;;;;;;5014390;28;19949;-70
2022/03/27 13:56:41;;;;;;;;;;;20.40;47.60;;;;;;5002092;28;19914;-70
2022/03/27 13:59:07;;;;;;;;;;;20.40;47.50;;;;;;5005386;28;19956;-71
2022/03/27 14:01:35;;;;;;;;;;;20.40;47.50;;;;;;5022299;28;19917;-69
2022/03/27 14:04:01;;;;;;;;;;;20.40;47.40;;;;;;5017145;28;19920;-69
2022/03/27 14:06:26;;;;;;;;;;;20.40;47.30;;;;;;4999664;28;19913;-69
2022/03/27 14:08:52;;;;;;;;;;;20.40;47.10;;;;;;5003394;28;20639;-70
2022/03/27 14:11:17;;;;;;;;;;;20.40;46.90;;;;;;5004109;28;19923;-69
2022/03/27 14:13:43;;;;;;;;;;;20.40;46.70;;;;;;5020918;28;20340;-69
2022/03/27 14:16:08;;;;;;;;;;;20.40;46.50;;;;;;5001732;28;19914;-69
2022/03/27 14:18:34;;;;;;;;;;;20.40;46.40;;;;;;5001033;28;19914;-69
2022/03/27 14:20:59;;;;;;;;;;;20.40;46.30;;;;;;5001347;28;20421;-69
2022/03/27 14:23:24;;;;;;;;;;;20.40;46.20;;;;;;5021134;28;19937;-70
2022/03/27 14:25:50;;;;;;;;;;;20.40;46.00;;;;;;5004906;28;19914;-70
2022/03/27 14:28:16;;;;;;;;;;;20.40;45.90;;;;;;5001579;28;19917;-69